createdAt,value
2023-01-11T00:03:08.402Z,6.06
2023-01-11T00:08:01.784Z,6.00
2023-01-11T00:12:55.071Z,5.69
2023-01-11T00:17:50.880Z,5.44
2023-01-11T00:22:45.740Z,6.05
2023-01-11T00:27:39.141Z,6.52
2023-01-11T00:32:32.393Z,6.01
2023-01-11T00:37:25.711Z,6.04
2023-01-11T00:42:37.768Z,6.50
2023-01-11T00:47:48.504Z,6.36
2023-01-11T00:52:41.931Z,6.35
2023-01-11T00:57:36.680Z,6.46
2023-01-11T01:02:30.049Z,6.17
2023-01-11T01:07:23.405Z,6.19
2023-01-11T01:12:36.644Z,5.71
2023-01-11T01:17:33.588Z,5.29
2023-01-11T01:22:26.991Z,5.66
2023-01-11T01:27:20.445Z,6.26
2023-01-11T01:32:13.850Z,6.30
2023-01-11T01:37:09.800Z,6.06
2023-01-11T01:42:03.212Z,5.44
2023-01-11T01:46:56.797Z,5.57
2023-01-11T01:51:56.257Z,5.12
2023-01-11T01:56:54.266Z,5.44
2023-01-11T02:01:49.078Z,5.80
2023-01-11T02:06:43.558Z,5.91
2023-01-11T02:11:43.416Z,6.05
2023-01-11T02:16:38.439Z,5.66
2023-01-11T02:21:45.218Z,5.79
2023-01-11T02:27:12.162Z,6.05
2023-01-11T02:32:21.168Z,5.79
2023-01-11T02:37:27.744Z,5.92
2023-01-11T02:42:47.037Z,6.08
2023-01-11T02:47:50.548Z,6.05
2023-01-11T02:52:52.830Z,5.26
2023-01-11T02:57:47.678Z,5.96
2023-01-11T03:02:42.511Z,5.76
2023-01-11T03:07:55.142Z,5.99
2023-01-11T03:13:01.728Z,5.20
2023-01-11T03:18:08.889Z,5.37
2023-01-11T03:23:15.592Z,5.93
2023-01-11T03:28:18.589Z,5.14
2023-01-11T03:33:22.728Z,5.74
2023-01-11T03:38:24.707Z,5.29
2023-01-11T03:43:22.223Z,5.34
2023-01-11T03:48:23.695Z,5.89
2023-01-11T03:53:23.925Z,5.69
2023-01-11T03:58:17.495Z,5.94
2023-01-11T04:03:12.806Z,5.34
2023-01-11T04:08:12.875Z,5.07
2023-01-11T04:13:06.351Z,5.17
2023-01-11T04:18:04.876Z,5.81
2023-01-11T04:23:00.413Z,5.87
2023-01-11T04:27:55.345Z,5.84
2023-01-11T04:32:51.037Z,5.34
2023-01-11T04:37:53.188Z,5.63
2023-01-11T04:42:48.051Z,5.34
2023-01-11T04:47:47.909Z,5.19
2023-01-11T04:52:44.175Z,5.74
2023-01-11T04:57:37.630Z,5.64
2023-01-11T05:02:30.954Z,5.23
2023-01-11T05:07:25.824Z,5.79
2023-01-11T05:12:21.150Z,5.70
2023-01-11T05:17:20.719Z,5.00
2023-01-11T05:22:14.254Z,4.99
2023-01-11T05:27:09.489Z,5.80
2023-01-11T05:32:03.007Z,5.62
2023-01-11T05:37:05.247Z,5.87
2023-01-11T05:41:58.882Z,5.35
2023-01-11T05:46:58.675Z,5.67
2023-01-11T05:51:52.048Z,5.25
2023-01-11T05:56:45.293Z,5.02
2023-01-11T06:01:39.465Z,5.62
2023-01-11T06:06:34.620Z,5.85
2023-01-11T06:11:27.980Z,5.06
2023-01-11T06:16:23.838Z,4.92
2023-01-11T06:21:18.388Z,5.81
2023-01-11T06:26:15.231Z,5.84
2023-01-11T06:31:08.718Z,5.49
2023-01-11T06:36:06.315Z,5.63
2023-01-11T06:41:01.582Z,5.87
2023-01-11T06:45:59.102Z,5.64
2023-01-11T06:50:54.796Z,5.95
2023-01-11T06:55:51.418Z,6.01
2023-01-11T07:00:44.696Z,5.89
2023-01-11T07:05:39.945Z,6.06
2023-01-11T07:10:33.211Z,6.12
2023-01-11T07:15:26.467Z,6.16
2023-01-11T07:20:19.962Z,6.12
2023-01-11T07:25:14.777Z,5.51
2023-01-11T07:30:10.064Z,5.73
2023-01-11T07:35:03.597Z,6.20
2023-01-11T07:39:56.981Z,6.18
2023-01-11T07:44:51.790Z,5.29
2023-01-11T07:49:45.080Z,5.73
2023-01-11T07:54:38.421Z,5.47
2023-01-11T07:59:31.706Z,6.10
2023-01-11T08:04:32.540Z,6.06
2023-01-11T08:09:26.841Z,4.67
2023-01-11T08:14:41.890Z,5.80
2023-01-11T08:19:39.218Z,6.30
2023-01-11T08:24:34.135Z,5.62
2023-01-11T08:29:48.037Z,5.12
2023-01-11T08:34:45.230Z,5.13
2023-01-11T08:39:38.566Z,5.10
2023-01-11T08:44:37.645Z,6.04
2023-01-11T08:49:34.237Z,5.75
2023-01-11T08:54:29.373Z,5.75
2023-01-11T08:59:23.326Z,5.45
2023-01-11T09:04:24.592Z,6.52
2023-01-11T09:09:20.483Z,6.56
2023-01-11T09:14:28.342Z,5.44
2023-01-11T09:19:23.037Z,5.51
2023-01-11T09:24:25.228Z,6.71
2023-01-11T09:29:23.431Z,5.41
2023-01-11T09:34:21.267Z,6.62
2023-01-11T09:39:18.713Z,6.26
2023-01-11T09:44:19.089Z,6.61
2023-01-11T09:49:45.974Z,6.69
2023-01-11T09:54:40.593Z,5.73
2023-01-11T10:00:41.568Z,5.45
2023-01-11T10:05:58.782Z,5.81
2023-01-11T10:18:28.383Z,6.73
2023-01-11T10:21:49.592Z,5.61
2023-01-11T10:26:43.115Z,5.85
2023-01-11T10:31:56.026Z,6.46
2023-01-11T10:37:17.240Z,5.44
2023-01-11T10:42:18.580Z,5.60
2023-01-11T10:47:52.700Z,5.81
2023-01-11T10:52:58.986Z,5.76
2023-01-11T10:58:04.384Z,6.96
2023-01-11T11:03:20.350Z,5.84
2023-01-11T11:08:22.641Z,6.80
2023-01-11T11:13:22.595Z,6.85
2023-01-11T11:18:18.715Z,6.68
2023-01-11T11:23:16.996Z,6.08
2023-01-11T11:28:26.782Z,6.94
2023-01-11T11:33:23.849Z,6.93
2023-01-11T11:38:25.319Z,6.97
2023-01-11T11:43:24.156Z,6.95
2023-01-11T11:48:23.153Z,6.79
2023-01-11T11:53:41.207Z,6.65
2023-01-11T11:58:35.574Z,6.63
2023-01-11T12:03:33.351Z,7.00
2023-01-11T12:08:27.197Z,6.98
2023-01-11T12:13:32.825Z,6.38
2023-01-11T12:18:35.930Z,7.01
2023-01-11T12:23:37.406Z,6.69
2023-01-11T12:28:48.280Z,6.83
2023-01-11T12:33:48.703Z,7.07
2023-01-11T12:38:59.834Z,7.02
2023-01-11T12:44:23.500Z,6.88
2023-01-11T12:49:36.034Z,5.64
2023-01-11T12:54:48.246Z,6.40
2023-01-11T13:00:01.494Z,6.92
2023-01-11T13:05:09.319Z,7.03
2023-01-11T13:10:30.035Z,6.36
2023-01-11T13:15:34.736Z,6.51
2023-01-11T13:20:59.267Z,6.43
2023-01-11T13:26:02.220Z,6.33
2023-01-11T13:30:58.494Z,6.59
2023-01-11T13:35:56.822Z,5.96
2023-01-11T13:40:58.951Z,5.38
2023-01-11T13:46:05.848Z,6.25
2023-01-11T13:51:07.661Z,5.44
2023-01-11T13:56:08.210Z,5.58
2023-01-11T14:01:07.917Z,5.97
2023-01-11T14:06:15.090Z,5.37
2023-01-11T14:11:20.816Z,5.45
2023-01-11T14:16:22.819Z,5.56
2023-01-11T14:21:23.534Z,4.73
2023-01-11T14:26:56.401Z,4.28
2023-01-11T14:32:15.553Z,5.47
2023-01-11T14:37:28.902Z,4.24
2023-01-11T14:43:02.304Z,5.08
2023-01-11T14:48:15.816Z,4.74
2023-01-11T14:53:15.685Z,4.99
2023-01-11T14:58:19.091Z,4.96
2023-01-11T15:03:48.887Z,5.14
2023-01-11T15:08:50.135Z,4.82
2023-01-11T15:13:49.097Z,4.93
2023-01-11T15:18:46.879Z,3.77
2023-01-11T15:23:50.555Z,4.90
2023-01-11T15:28:54.568Z,4.26
2023-01-11T15:33:51.084Z,4.32
2023-01-11T15:38:52.225Z,4.38
2023-01-11T15:44:19.837Z,3.95
2023-01-11T15:49:42.289Z,3.79
2023-01-11T15:55:09.851Z,3.68
2023-01-11T16:00:33.909Z,4.52
2023-01-11T16:05:31.663Z,4.46
2023-01-11T16:11:08.623Z,4.47
2023-01-11T16:16:19.791Z,4.44
2023-01-11T16:21:19.937Z,3.26
2023-01-11T16:26:20.558Z,3.87
2023-01-11T16:31:26.080Z,4.19
2023-01-11T16:36:26.934Z,3.93
2023-01-11T16:41:22.051Z,3.78
2023-01-11T16:46:52.792Z,3.66
2023-01-11T16:51:48.572Z,4.03
2023-01-11T16:56:49.589Z,4.10
2023-01-11T17:02:15.071Z,4.09
2023-01-11T17:07:15.291Z,3.72
2023-01-11T17:12:19.037Z,3.91
2023-01-11T17:17:15.364Z,3.66
2023-01-11T17:22:15.780Z,3.79
2023-01-11T17:27:19.276Z,2.55
2023-01-11T17:32:22.706Z,3.19
2023-01-11T17:37:18.051Z,3.05
2023-01-11T17:42:45.237Z,3.17
2023-01-11T17:47:46.839Z,3.73
2023-01-11T17:52:54.047Z,3.40
2023-01-11T17:58:12.669Z,3.65
2023-01-11T18:03:14.529Z,3.40
2023-01-11T18:08:18.327Z,3.60
2023-01-11T18:13:25.352Z,3.59
2023-01-11T18:18:42.730Z,3.35
2023-01-11T18:23:36.214Z,3.54
2023-01-11T18:28:32.350Z,3.52
2023-01-11T18:33:33.728Z,3.12
2023-01-11T18:38:33.398Z,2.60
2023-01-11T18:43:33.809Z,3.30
2023-01-11T18:48:30.369Z,2.53
2023-01-11T18:53:24.705Z,2.93
2023-01-11T18:58:21.211Z,2.92
2023-01-11T19:08:13.919Z,3.16
2023-01-11T19:13:07.394Z,2.48
2023-01-11T19:18:03.398Z,2.71
2023-01-11T19:22:57.040Z,2.28
2023-01-11T19:27:50.639Z,3.02
2023-01-11T19:32:44.213Z,3.03
2023-01-11T19:37:39.644Z,3.01
2023-01-11T19:42:33.417Z,2.87
2023-01-11T19:47:29.171Z,2.98
2023-01-11T19:52:22.628Z,2.76
2023-01-11T19:57:20.795Z,2.72
2023-01-11T20:02:17.512Z,2.51
2023-01-11T20:07:12.392Z,1.38
2023-01-11T20:12:09.239Z,2.12
2023-01-11T20:17:04.143Z,2.62
2023-01-11T20:22:00.542Z,2.68
2023-01-11T20:26:57.909Z,2.50
2023-01-11T20:31:51.536Z,2.84
2023-01-11T20:36:49.129Z,2.82
2023-01-11T20:41:48.666Z,2.83
2023-01-11T20:46:42.207Z,2.47
2023-01-11T20:51:36.156Z,2.57
2023-01-11T20:56:33.188Z,2.29
2023-01-11T21:01:26.791Z,2.19
2023-01-11T21:06:20.345Z,2.83
2023-01-11T21:11:16.376Z,2.24
2023-01-11T21:16:13.261Z,2.69
2023-01-11T21:21:07.239Z,2.41
2023-01-11T21:26:00.606Z,2.09
2023-01-11T21:30:53.985Z,2.81
2023-01-11T21:35:49.927Z,2.15
2023-01-11T21:40:43.416Z,2.47
2023-01-11T21:45:36.793Z,2.73
2023-01-11T21:50:30.006Z,2.43
2023-01-11T21:55:26.970Z,2.70
2023-01-11T22:00:23.720Z,2.68
2023-01-11T22:05:17.153Z,2.47
2023-01-11T22:10:12.453Z,1.96
2023-01-11T22:15:08.673Z,1.86
2023-01-11T22:20:03.837Z,2.47
2023-01-11T22:24:57.524Z,2.29
2023-01-11T22:29:52.210Z,2.13
2023-01-11T22:34:46.894Z,2.37
2023-01-11T22:39:40.728Z,2.39
2023-01-11T22:44:34.466Z,2.03
2023-01-11T22:49:27.690Z,1.59
2023-01-11T22:54:23.060Z,2.56
2023-01-11T22:59:16.246Z,2.43
2023-01-11T23:04:13.694Z,2.30
2023-01-11T23:09:09.470Z,2.59
2023-01-11T23:14:05.082Z,2.57
2023-01-11T23:18:58.774Z,2.55
2023-01-11T23:23:52.088Z,2.47
2023-01-11T23:28:49.643Z,2.23
2023-01-11T23:33:44.875Z,2.51
2023-01-11T23:38:38.113Z,2.15
2023-01-11T23:43:31.387Z,1.55
2023-01-11T23:48:30.588Z,2.09
2023-01-11T23:53:25.142Z,2.20
2023-01-11T23:58:19.745Z,1.66
